sensor_id;sensor_type;location;lat;lon;timestamp;pressure;altitude;pressure_sealevel;temperature;humidity
54870;BME280;40756;-37.950;145.008;2023-02-03T00:01:02;99078.84;;;17.00;33.91
54870;BME280;40756;-37.950;145.008;2023-02-03T00:03:32;99095.83;;;15.87;36.21
54870;BME280;40756;-37.950;145.008;2023-02-03T00:06:01;99099.88;;;14.99;43.82
54870;BME280;40756;-37.950;145.008;2023-02-03T00:08:33;99109.73;;;14.55;48.76
54870;BME280;40756;-37.950;145.008;2023-02-03T00:11:04;99097.22;;;14.16;46.44
54870;BME280;40756;-37.950;145.008;2023-02-03T00:13:34;99097.22;;;14.78;45.56
54870;BME280;40756;-37.950;145.008;2023-02-03T00:16:05;99085.81;;;14.49;44.30
54870;BME280;40756;-37.950;145.008;2023-02-03T00:18:35;99089.36;;;14.61;44.92
54870;BME280;40756;-37.950;145.008;2023-02-03T00:21:05;99075.31;;;15.09;42.84
54870;BME280;40756;-37.950;145.008;2023-02-03T00:23:35;99084.40;;;14.80;41.62
54870;BME280;40756;-37.950;145.008;2023-02-03T00:26:11;99089.07;;;15.58;40.49
54870;BME280;40756;-37.950;145.008;2023-02-03T00:28:40;99081.40;;;15.93;40.84
54870;BME280;40756;-37.950;145.008;2023-02-03T00:31:16;99089.37;;;15.75;37.32
54870;BME280;40756;-37.950;145.008;2023-02-03T00:33:46;99085.35;;;16.27;38.21
54870;BME280;40756;-37.950;145.008;2023-02-03T00:36:18;99092.23;;;15.92;37.49
54870;BME280;40756;-37.950;145.008;2023-02-03T00:38:53;99092.94;;;16.26;38.06
54870;BME280;40756;-37.950;145.008;2023-02-03T00:41:27;99090.53;;;15.98;38.02
54870;BME280;40756;-37.950;145.008;2023-02-03T00:43:57;99108.26;;;16.88;37.79
54870;BME280;40756;-37.950;145.008;2023-02-03T00:46:26;99110.18;;;16.94;36.21
54870;BME280;40756;-37.950;145.008;2023-02-03T00:48:56;99118.83;;;17.04;37.89
54870;BME280;40756;-37.950;145.008;2023-02-03T00:51:32;99117.87;;;17.31;36.66
54870;BME280;40756;-37.950;145.008;2023-02-03T00:54:01;99120.71;;;17.37;36.95
54870;BME280;40756;-37.950;145.008;2023-02-03T00:56:31;99123.10;;;17.77;36.30
54870;BME280;40756;-37.950;145.008;2023-02-03T00:59:00;99110.02;;;18.18;36.08
54870;BME280;40756;-37.950;145.008;2023-02-03T01:01:33;99108.81;;;17.39;34.37
54870;BME280;40756;-37.950;145.008;2023-02-03T01:04:03;99097.69;;;18.30;34.86
54870;BME280;40756;-37.950;145.008;2023-02-03T01:06:33;99091.99;;;17.67;33.77
54870;BME280;40756;-37.950;145.008;2023-02-03T01:09:04;99100.79;;;17.87;33.63
54870;BME280;40756;-37.950;145.008;2023-02-03T01:11:35;99096.78;;;17.22;35.36
54870;BME280;40756;-37.950;145.008;2023-02-03T01:14:05;99088.54;;;16.85;35.58
54870;BME280;40756;-37.950;145.008;2023-02-03T01:16:36;99091.03;;;17.48;35.83
54870;BME280;40756;-37.950;145.008;2023-02-03T01:19:06;99081.88;;;18.10;34.27
54870;BME280;40756;-37.950;145.008;2023-02-03T01:21:35;99081.52;;;18.01;34.54
54870;BME280;40756;-37.950;145.008;2023-02-03T01:24:05;99088.51;;;18.16;34.80
54870;BME280;40756;-37.950;145.008;2023-02-03T01:26:36;99078.84;;;18.22;33.37
54870;BME280;40756;-37.950;145.008;2023-02-03T01:29:06;99074.96;;;19.11;33.59
54870;BME280;40756;-37.950;145.008;2023-02-03T01:31:43;99071.95;;;19.35;32.19
54870;BME280;40756;-37.950;145.008;2023-02-03T01:34:14;99067.86;;;19.70;33.43
54870;BME280;40756;-37.950;145.008;2023-02-03T01:36:43;99057.34;;;19.88;31.73
54870;BME280;40756;-37.950;145.008;2023-02-03T01:39:13;99047.16;;;20.23;32.26
54870;BME280;40756;-37.950;145.008;2023-02-03T01:41:43;99055.51;;;19.96;31.21
54870;BME280;40756;-37.950;145.008;2023-02-03T01:44:48;99048.97;;;19.88;31.26
54870;BME280;40756;-37.950;145.008;2023-02-03T01:47:27;99056.58;;;19.48;30.43
54870;BME280;40756;-37.950;145.008;2023-02-03T01:50:04;99047.47;;;19.63;31.94
54870;BME280;40756;-37.950;145.008;2023-02-03T01:52:34;99047.23;;;20.20;30.85
54870;BME280;40756;-37.950;145.008;2023-02-03T01:55:07;99058.22;;;20.42;30.61
54870;BME280;40756;-37.950;145.008;2023-02-03T01:57:44;99062.15;;;19.83;30.92
54870;BME280;40756;-37.950;145.008;2023-02-03T02:00:16;99072.33;;;19.69;30.27
54870;BME280;40756;-37.950;145.008;2023-02-03T02:02:48;99070.05;;;19.29;30.86
54870;BME280;40756;-37.950;145.008;2023-02-03T02:05:23;99074.37;;;19.84;30.19
54870;BME280;40756;-37.950;145.008;2023-02-03T02:07:54;99073.68;;;19.40;29.16
54870;BME280;40756;-37.950;145.008;2023-02-03T02:10:25;99090.61;;;18.92;29.02
54870;BME280;40756;-37.950;145.008;2023-02-03T02:12:57;99112.77;;;18.15;30.50
54870;BME280;40756;-37.950;145.008;2023-02-03T02:15:34;99138.50;;;17.94;35.08
54870;BME280;40756;-37.950;145.008;2023-02-03T02:18:21;99164.26;;;16.50;44.86
54870;BME280;40756;-37.950;145.008;2023-02-03T02:21:46;99147.59;;;16.64;48.08
54870;BME280;40756;-37.950;145.008;2023-02-03T02:24:42;99143.09;;;15.46;47.36
54870;BME280;40756;-37.950;145.008;2023-02-03T02:27:41;99145.22;;;15.91;48.38
54870;BME280;40756;-37.950;145.008;2023-02-03T02:30:35;99155.93;;;16.48;50.35
54870;BME280;40756;-37.950;145.008;2023-02-03T02:33:15;99157.83;;;15.89;50.37
54870;BME280;40756;-37.950;145.008;2023-02-03T02:35:56;99153.25;;;16.36;49.90
54870;BME280;40756;-37.950;145.008;2023-02-03T02:38:39;99152.30;;;16.26;49.12
54870;BME280;40756;-37.950;145.008;2023-02-03T02:41:17;99154.01;;;16.31;49.30
54870;BME280;40756;-37.950;145.008;2023-02-03T02:43:50;99154.69;;;16.41;48.76
54870;BME280;40756;-37.950;145.008;2023-02-03T02:46:29;99155.10;;;16.31;48.44
54870;BME280;40756;-37.950;145.008;2023-02-03T02:49:03;99145.27;;;16.39;44.95
54870;BME280;40756;-37.950;145.008;2023-02-03T02:51:36;99140.88;;;15.81;44.70
54870;BME280;40756;-37.950;145.008;2023-02-03T02:54:10;99138.56;;;16.78;48.02
54870;BME280;40756;-37.950;145.008;2023-02-03T02:56:41;99135.46;;;17.06;48.08
54870;BME280;40756;-37.950;145.008;2023-02-03T02:59:13;99135.75;;;17.73;50.09
54870;BME280;40756;-37.950;145.008;2023-02-03T03:01:43;99132.46;;;18.30;46.51
54870;BME280;40756;-37.950;145.008;2023-02-03T03:04:15;99126.92;;;18.65;45.26
54870;BME280;40756;-37.950;145.008;2023-02-03T03:06:50;99129.55;;;19.05;44.42
54870;BME280;40756;-37.950;145.008;2023-02-03T03:09:23;99126.39;;;18.49;42.00
54870;BME280;40756;-37.950;145.008;2023-02-03T03:11:56;99119.27;;;18.56;43.23
54870;BME280;40756;-37.950;145.008;2023-02-03T03:14:29;99129.28;;;18.37;42.21
54870;BME280;40756;-37.950;145.008;2023-02-03T03:17:03;99122.09;;;18.37;41.30
54870;BME280;40756;-37.950;145.008;2023-02-03T03:19:37;99125.87;;;18.42;42.36
54870;BME280;40756;-37.950;145.008;2023-02-03T03:22:10;99130.11;;;18.65;43.61
54870;BME280;40756;-37.950;145.008;2023-02-03T03:24:42;99130.11;;;19.27;41.64
54870;BME280;40756;-37.950;145.008;2023-02-03T03:27:15;99121.16;;;18.75;38.28
54870;BME280;40756;-37.950;145.008;2023-02-03T03:29:50;99124.31;;;19.29;37.48
54870;BME280;40756;-37.950;145.008;2023-02-03T03:32:22;99127.15;;;19.64;36.49
54870;BME280;40756;-37.950;145.008;2023-02-03T03:34:52;99124.85;;;19.76;35.89
54870;BME280;40756;-37.950;145.008;2023-02-03T03:37:27;99128.03;;;19.91;35.33
54870;BME280;40756;-37.950;145.008;2023-02-03T03:40:01;99124.50;;;20.16;35.65
54870;BME280;40756;-37.950;145.008;2023-02-03T03:42:40;99124.69;;;20.20;35.58
54870;BME280;40756;-37.950;145.008;2023-02-03T03:45:15;99121.68;;;20.76;32.52
54870;BME280;40756;-37.950;145.008;2023-02-03T03:47:52;99119.24;;;20.54;29.10
54870;BME280;40756;-37.950;145.008;2023-02-03T03:50:26;99119.50;;;20.20;29.35
54870;BME280;40756;-37.950;145.008;2023-02-03T03:52:58;99122.76;;;19.74;28.73
54870;BME280;40756;-37.950;145.008;2023-02-03T03:55:31;99125.66;;;18.40;31.15
54870;BME280;40756;-37.950;145.008;2023-02-03T03:58:04;99131.30;;;19.24;31.70
54870;BME280;40756;-37.950;145.008;2023-02-03T04:00:38;99128.29;;;18.97;31.14
54870;BME280;40756;-37.950;145.008;2023-02-03T04:03:12;99133.54;;;18.41;31.92
54870;BME280;40756;-37.950;145.008;2023-02-03T04:05:44;99144.74;;;17.38;37.47
54870;BME280;40756;-37.950;145.008;2023-02-03T04:08:14;99145.28;;;16.54;39.38
54870;BME280;40756;-37.950;145.008;2023-02-03T04:10:43;99150.29;;;16.79;37.79
54870;BME280;40756;-37.950;145.008;2023-02-03T04:13:13;99152.65;;;16.44;37.71
54870;BME280;40756;-37.950;145.008;2023-02-03T04:15:42;99153.58;;;16.44;37.98
54870;BME280;40756;-37.950;145.008;2023-02-03T04:18:15;99147.26;;;16.92;37.34
54870;BME280;40756;-37.950;145.008;2023-02-03T04:20:46;99149.03;;;17.49;35.76
54870;BME280;40756;-37.950;145.008;2023-02-03T04:23:17;99149.44;;;17.29;37.87
54870;BME280;40756;-37.950;145.008;2023-02-03T04:25:46;99167.44;;;17.46;35.70
54870;BME280;40756;-37.950;145.008;2023-02-03T04:28:15;99175.58;;;16.49;34.46
54870;BME280;40756;-37.950;145.008;2023-02-03T04:30:45;99173.44;;;15.95;36.47
54870;BME280;40756;-37.950;145.008;2023-02-03T04:33:14;99169.84;;;16.32;35.00
54870;BME280;40756;-37.950;145.008;2023-02-03T04:35:44;99174.70;;;15.91;39.29
54870;BME280;40756;-37.950;145.008;2023-02-03T04:38:14;99184.19;;;15.61;40.22
54870;BME280;40756;-37.950;145.008;2023-02-03T04:40:43;99183.56;;;15.88;40.20
54870;BME280;40756;-37.950;145.008;2023-02-03T04:43:14;99180.79;;;15.85;42.37
54870;BME280;40756;-37.950;145.008;2023-02-03T04:45:43;99187.97;;;16.97;36.98
54870;BME280;40756;-37.950;145.008;2023-02-03T04:48:13;99187.87;;;17.36;34.15
54870;BME280;40756;-37.950;145.008;2023-02-03T04:50:43;99191.35;;;18.60;33.94
54870;BME280;40756;-37.950;145.008;2023-02-03T04:53:13;99195.06;;;19.40;32.17
54870;BME280;40756;-37.950;145.008;2023-02-03T04:55:45;99196.75;;;19.40;32.49
54870;BME280;40756;-37.950;145.008;2023-02-03T04:58:15;99193.98;;;20.36;30.45
54870;BME280;40756;-37.950;145.008;2023-02-03T05:00:44;99193.83;;;20.15;29.59
54870;BME280;40756;-37.950;145.008;2023-02-03T05:03:14;99187.66;;;20.94;29.85
54870;BME280;40756;-37.950;145.008;2023-02-03T05:05:44;99185.56;;;20.23;28.63
54870;BME280;40756;-37.950;145.008;2023-02-03T05:08:14;99190.02;;;20.97;27.16
54870;BME280;40756;-37.950;145.008;2023-02-03T05:10:43;99190.41;;;20.59;26.34
54870;BME280;40756;-37.950;145.008;2023-02-03T05:13:12;99197.62;;;19.73;27.59
54870;BME280;40756;-37.950;145.008;2023-02-03T05:15:42;99204.49;;;18.21;31.17
54870;BME280;40756;-37.950;145.008;2023-02-03T05:18:11;99221.29;;;17.08;35.92
54870;BME280;40756;-37.950;145.008;2023-02-03T05:20:41;99205.07;;;17.42;39.03
54870;BME280;40756;-37.950;145.008;2023-02-03T05:23:12;99212.73;;;17.37;38.35
54870;BME280;40756;-37.950;145.008;2023-02-03T05:25:43;99219.31;;;17.92;37.51
54870;BME280;40756;-37.950;145.008;2023-02-03T05:28:13;99216.99;;;16.46;36.21
54870;BME280;40756;-37.950;145.008;2023-02-03T05:30:43;99226.52;;;16.87;35.70
54870;BME280;40756;-37.950;145.008;2023-02-03T05:33:12;99240.04;;;16.10;36.39
54870;BME280;40756;-37.950;145.008;2023-02-03T05:35:42;99242.19;;;16.30;35.89
54870;BME280;40756;-37.950;145.008;2023-02-03T05:38:11;99258.17;;;16.17;37.44
54870;BME280;40756;-37.950;145.008;2023-02-03T05:40:41;99263.56;;;16.53;37.13
54870;BME280;40756;-37.950;145.008;2023-02-03T05:43:12;99270.01;;;16.33;37.96
54870;BME280;40756;-37.950;145.008;2023-02-03T05:45:42;99269.23;;;16.37;38.63
54870;BME280;40756;-37.950;145.008;2023-02-03T05:48:12;99281.41;;;15.19;39.67
54870;BME280;40756;-37.950;145.008;2023-02-03T05:50:41;99281.13;;;15.78;39.41
54870;BME280;40756;-37.950;145.008;2023-02-03T05:53:11;99282.16;;;16.14;40.92
54870;BME280;40756;-37.950;145.008;2023-02-03T05:55:40;99288.25;;;15.53;36.83
54870;BME280;40756;-37.950;145.008;2023-02-03T05:58:10;99300.52;;;15.48;37.53
54870;BME280;40756;-37.950;145.008;2023-02-03T06:00:39;99296.40;;;16.05;37.78
54870;BME280;40756;-37.950;145.008;2023-02-03T06:03:09;99293.47;;;16.11;36.57
54870;BME280;40756;-37.950;145.008;2023-02-03T06:05:39;99299.06;;;16.94;35.88
54870;BME280;40756;-37.950;145.008;2023-02-03T06:08:08;99290.28;;;17.71;35.54
54870;BME280;40756;-37.950;145.008;2023-02-03T06:10:38;99284.95;;;17.26;33.98
54870;BME280;40756;-37.950;145.008;2023-02-03T06:13:12;99288.16;;;17.91;33.47
54870;BME280;40756;-37.950;145.008;2023-02-03T06:15:42;99281.29;;;18.14;32.10
54870;BME280;40756;-37.950;145.008;2023-02-03T06:18:12;99283.79;;;18.33;32.41
54870;BME280;40756;-37.950;145.008;2023-02-03T06:20:41;99277.62;;;18.34;32.48
54870;BME280;40756;-37.950;145.008;2023-02-03T06:23:12;99281.33;;;18.33;30.52
54870;BME280;40756;-37.950;145.008;2023-02-03T06:25:42;99283.57;;;18.84;30.13
54870;BME280;40756;-37.950;145.008;2023-02-03T06:28:12;99284.38;;;19.09;29.89
54870;BME280;40756;-37.950;145.008;2023-02-03T06:30:41;99297.39;;;18.84;31.01
54870;BME280;40756;-37.950;145.008;2023-02-03T06:33:10;99295.59;;;17.66;30.63
54870;BME280;40756;-37.950;145.008;2023-02-03T06:35:40;99294.82;;;19.01;31.80
54870;BME280;40756;-37.950;145.008;2023-02-03T06:38:09;99294.69;;;18.71;31.09
54870;BME280;40756;-37.950;145.008;2023-02-03T06:40:39;99294.09;;;19.26;31.17
54870;BME280;40756;-37.950;145.008;2023-02-03T06:43:08;99300.00;;;19.73;32.09
54870;BME280;40756;-37.950;145.008;2023-02-03T06:45:38;99303.19;;;19.25;32.17
54870;BME280;40756;-37.950;145.008;2023-02-03T06:48:07;99316.21;;;18.02;32.06
54870;BME280;40756;-37.950;145.008;2023-02-03T06:50:37;99316.60;;;17.85;32.17
54870;BME280;40756;-37.950;145.008;2023-02-03T06:53:07;99319.55;;;17.41;32.97
54870;BME280;40756;-37.950;145.008;2023-02-03T06:55:36;99324.83;;;17.49;33.80
54870;BME280;40756;-37.950;145.008;2023-02-03T06:58:06;99336.55;;;17.51;36.68
54870;BME280;40756;-37.950;145.008;2023-02-03T07:00:35;99350.20;;;16.71;42.03
54870;BME280;40756;-37.950;145.008;2023-02-03T07:03:05;99351.54;;;14.95;48.07
54870;BME280;40756;-37.950;145.008;2023-02-03T07:05:34;99346.32;;;15.18;48.71
54870;BME280;40756;-37.950;145.008;2023-02-03T07:08:04;99363.94;;;15.04;49.55
54870;BME280;40756;-37.950;145.008;2023-02-03T07:10:34;99372.35;;;14.77;49.67
54870;BME280;40756;-37.950;145.008;2023-02-03T07:13:04;99376.74;;;15.25;49.47
54870;BME280;40756;-37.950;145.008;2023-02-03T07:15:34;99379.20;;;15.05;49.80
54870;BME280;40756;-37.950;145.008;2023-02-03T07:18:04;99380.28;;;15.46;49.52
54870;BME280;40756;-37.950;145.008;2023-02-03T07:20:38;99378.47;;;15.68;48.97
54870;BME280;40756;-37.950;145.008;2023-02-03T07:23:08;99378.89;;;15.05;48.29
54870;BME280;40756;-37.950;145.008;2023-02-03T07:25:39;99391.05;;;14.55;48.67
54870;BME280;40756;-37.950;145.008;2023-02-03T07:28:09;99403.24;;;15.63;46.37
54870;BME280;40756;-37.950;145.008;2023-02-03T07:30:39;99402.24;;;15.26;45.10
54870;BME280;40756;-37.950;145.008;2023-02-03T07:33:08;99417.59;;;14.93;43.74
54870;BME280;40756;-37.950;145.008;2023-02-03T07:35:38;99415.00;;;15.60;43.22
54870;BME280;40756;-37.950;145.008;2023-02-03T07:38:08;99420.59;;;14.66;43.02
54870;BME280;40756;-37.950;145.008;2023-02-03T07:40:37;99440.00;;;14.75;43.37
54870;BME280;40756;-37.950;145.008;2023-02-03T07:43:07;99439.99;;;14.97;42.43
54870;BME280;40756;-37.950;145.008;2023-02-03T07:45:36;99446.69;;;15.33;43.05
54870;BME280;40756;-37.950;145.008;2023-02-03T07:48:06;99451.13;;;15.92;41.87
54870;BME280;40756;-37.950;145.008;2023-02-03T07:50:36;99451.29;;;15.75;41.44
54870;BME280;40756;-37.950;145.008;2023-02-03T07:53:06;99458.88;;;16.28;40.74
54870;BME280;40756;-37.950;145.008;2023-02-03T07:55:37;99462.15;;;16.05;41.23
54870;BME280;40756;-37.950;145.008;2023-02-03T07:58:07;99467.90;;;16.03;41.07
54870;BME280;40756;-37.950;145.008;2023-02-03T08:00:37;99466.69;;;16.45;41.07
54870;BME280;40756;-37.950;145.008;2023-02-03T08:03:06;99466.93;;;17.09;40.95
54870;BME280;40756;-37.950;145.008;2023-02-03T08:05:36;99475.48;;;16.08;40.85
54870;BME280;40756;-37.950;145.008;2023-02-03T08:08:06;99473.89;;;16.43;39.90
54870;BME280;40756;-37.950;145.008;2023-02-03T08:10:35;99481.61;;;16.06;40.32
54870;BME280;40756;-37.950;145.008;2023-02-03T08:13:05;99498.78;;;15.48;41.27
54870;BME280;40756;-37.950;145.008;2023-02-03T08:15:34;99492.06;;;15.86;41.03
54870;BME280;40756;-37.950;145.008;2023-02-03T08:18:04;99501.19;;;15.35;43.04
54870;BME280;40756;-37.950;145.008;2023-02-03T08:20:34;99507.66;;;13.91;43.41
54870;BME280;40756;-37.950;145.008;2023-02-03T08:23:03;99508.25;;;14.81;42.25
54870;BME280;40756;-37.950;145.008;2023-02-03T08:25:33;99503.24;;;15.01;41.52
54870;BME280;40756;-37.950;145.008;2023-02-03T08:28:04;99507.98;;;14.49;44.41
54870;BME280;40756;-37.950;145.008;2023-02-03T08:30:34;99515.75;;;15.08;43.41
54870;BME280;40756;-37.950;145.008;2023-02-03T08:33:04;99517.74;;;15.22;44.19
54870;BME280;40756;-37.950;145.008;2023-02-03T08:35:33;99513.25;;;14.94;45.56
54870;BME280;40756;-37.950;145.008;2023-02-03T08:38:03;99527.40;;;14.71;46.33
54870;BME280;40756;-37.950;145.008;2023-02-03T08:40:32;99524.91;;;14.95;47.19
54870;BME280;40756;-37.950;145.008;2023-02-03T08:43:02;99528.96;;;15.55;46.02
54870;BME280;40756;-37.950;145.008;2023-02-03T08:45:32;99539.25;;;15.51;46.65
54870;BME280;40756;-37.950;145.008;2023-02-03T08:48:01;99537.29;;;15.75;44.97
54870;BME280;40756;-37.950;145.008;2023-02-03T08:50:31;99544.33;;;15.60;45.24
54870;BME280;40756;-37.950;145.008;2023-02-03T08:53:00;99543.45;;;16.10;44.18
54870;BME280;40756;-37.950;145.008;2023-02-03T08:55:32;99557.56;;;15.95;44.36
54870;BME280;40756;-37.950;145.008;2023-02-03T08:58:01;99563.35;;;15.70;44.29
54870;BME280;40756;-37.950;145.008;2023-02-03T09:00:31;99568.82;;;15.68;43.66
54870;BME280;40756;-37.950;145.008;2023-02-03T09:03:01;99582.71;;;14.46;44.42
54870;BME280;40756;-37.950;145.008;2023-02-03T09:05:31;99590.71;;;14.76;44.97
54870;BME280;40756;-37.950;145.008;2023-02-03T09:08:00;99603.09;;;14.73;45.13
54870;BME280;40756;-37.950;145.008;2023-02-03T09:10:30;99609.45;;;14.54;44.84
54870;BME280;40756;-37.950;145.008;2023-02-03T09:12:59;99617.27;;;14.49;44.93
54870;BME280;40756;-37.950;145.008;2023-02-03T09:15:29;99620.22;;;14.00;45.87
54870;BME280;40756;-37.950;145.008;2023-02-03T09:17:59;99621.86;;;15.18;44.49
54870;BME280;40756;-37.950;145.008;2023-02-03T09:20:28;99626.66;;;14.67;45.13
54870;BME280;40756;-37.950;145.008;2023-02-03T09:22:59;99629.80;;;14.71;44.82
54870;BME280;40756;-37.950;145.008;2023-02-03T09:25:28;99633.26;;;14.56;45.14
54870;BME280;40756;-37.950;145.008;2023-02-03T09:27:57;99634.87;;;15.12;45.01
54870;BME280;40756;-37.950;145.008;2023-02-03T09:30:34;99638.72;;;14.48;44.48
54870;BME280;40756;-37.950;145.008;2023-02-03T09:33:04;99643.98;;;14.95;44.15
54870;BME280;40756;-37.950;145.008;2023-02-03T09:35:33;99645.01;;;15.06;44.07
54870;BME280;40756;-37.950;145.008;2023-02-03T09:38:03;99646.90;;;15.25;43.68
54870;BME280;40756;-37.950;145.008;2023-02-03T09:40:34;99648.97;;;15.07;43.69
54870;BME280;40756;-37.950;145.008;2023-02-03T09:43:16;99655.03;;;14.71;44.97
54870;BME280;40756;-37.950;145.008;2023-02-03T09:45:49;99655.78;;;14.87;44.96
54870;BME280;40756;-37.950;145.008;2023-02-03T09:48:21;99658.55;;;14.65;45.59
54870;BME280;40756;-37.950;145.008;2023-02-03T09:50:54;99660.76;;;14.49;46.59
54870;BME280;40756;-37.950;145.008;2023-02-03T09:53:30;99666.06;;;15.05;45.70
54870;BME280;40756;-37.950;145.008;2023-02-03T09:56:01;99672.07;;;14.96;46.16
54870;BME280;40756;-37.950;145.008;2023-02-03T09:58:33;99687.68;;;14.33;46.48
54870;BME280;40756;-37.950;145.008;2023-02-03T10:01:05;99683.97;;;14.79;45.83
54870;BME280;40756;-37.950;145.008;2023-02-03T10:03:41;99688.44;;;14.67;46.63
54870;BME280;40756;-37.950;145.008;2023-02-03T10:06:22;99686.21;;;14.57;46.67
54870;BME280;40756;-37.950;145.008;2023-02-03T10:09:07;99687.71;;;14.62;47.11
54870;BME280;40756;-37.950;145.008;2023-02-03T10:11:55;99692.89;;;14.88;47.42
54870;BME280;40756;-37.950;145.008;2023-02-03T10:14:41;99693.58;;;14.47;47.28
54870;BME280;40756;-37.950;145.008;2023-02-03T10:17:25;99696.58;;;15.46;46.50
54870;BME280;40756;-37.950;145.008;2023-02-03T10:20:03;99701.10;;;14.59;46.48
54870;BME280;40756;-37.950;145.008;2023-02-03T10:22:40;99706.29;;;14.67;46.30
54870;BME280;40756;-37.950;145.008;2023-02-03T10:25:18;99714.51;;;15.07;46.56
54870;BME280;40756;-37.950;145.008;2023-02-03T10:27:49;99721.50;;;14.55;47.54
54870;BME280;40756;-37.950;145.008;2023-02-03T10:30:22;99720.09;;;14.24;47.41
54870;BME280;40756;-37.950;145.008;2023-02-03T10:32:55;99724.59;;;13.71;48.18
54870;BME280;40756;-37.950;145.008;2023-02-03T10:35:35;99728.37;;;14.22;48.60
54870;BME280;40756;-37.950;145.008;2023-02-03T10:38:07;99733.27;;;14.25;48.18
54870;BME280;40756;-37.950;145.008;2023-02-03T10:40:42;99736.12;;;14.17;48.41
54870;BME280;40756;-37.950;145.008;2023-02-03T10:43:12;99741.12;;;14.31;48.33
54870;BME280;40756;-37.950;145.008;2023-02-03T10:45:41;99746.42;;;14.41;48.02
54870;BME280;40756;-37.950;145.008;2023-02-03T10:48:15;99743.73;;;14.55;47.14
54870;BME280;40756;-37.950;145.008;2023-02-03T10:50:47;99741.50;;;14.00;47.96
54870;BME280;40756;-37.950;145.008;2023-02-03T10:53:24;99746.23;;;15.11;46.46
54870;BME280;40756;-37.950;145.008;2023-02-03T10:56:03;99754.32;;;15.51;45.98
54870;BME280;40756;-37.950;145.008;2023-02-03T10:58:34;99761.38;;;15.40;46.37
54870;BME280;40756;-37.950;145.008;2023-02-03T11:01:09;99762.90;;;14.44;47.90
54870;BME280;40756;-37.950;145.008;2023-02-03T11:03:42;99771.90;;;14.31;47.14
54870;BME280;40756;-37.950;145.008;2023-02-03T11:06:14;99776.65;;;15.17;46.44
54870;BME280;40756;-37.950;145.008;2023-02-03T11:08:47;99780.59;;;13.99;47.80
54870;BME280;40756;-37.950;145.008;2023-02-03T11:11:22;99783.60;;;14.57;47.05
54870;BME280;40756;-37.950;145.008;2023-02-03T11:14:01;99790.76;;;14.97;46.79
54870;BME280;40756;-37.950;145.008;2023-02-03T11:16:39;99794.49;;;14.80;46.78
54870;BME280;40756;-37.950;145.008;2023-02-03T11:19:16;99794.48;;;14.61;46.77
54870;BME280;40756;-37.950;145.008;2023-02-03T11:21:48;99796.73;;;14.99;46.39
54870;BME280;40756;-37.950;145.008;2023-02-03T11:24:21;99798.28;;;14.72;47.02
54870;BME280;40756;-37.950;145.008;2023-02-03T11:26:55;99801.37;;;15.02;47.38
54870;BME280;40756;-37.950;145.008;2023-02-03T11:29:27;99804.25;;;14.25;48.68
54870;BME280;40756;-37.950;145.008;2023-02-03T11:32:00;99802.09;;;14.77;47.62
54870;BME280;40756;-37.950;145.008;2023-02-03T11:34:34;99807.39;;;15.13;47.13
54870;BME280;40756;-37.950;145.008;2023-02-03T11:37:27;99807.85;;;14.86;46.98
54870;BME280;40756;-37.950;145.008;2023-02-03T11:40:22;99811.16;;;14.86;46.91
54870;BME280;40756;-37.950;145.008;2023-02-03T11:43:17;99811.05;;;14.60;46.18
54870;BME280;40756;-37.950;145.008;2023-02-03T11:45:49;99824.22;;;14.79;46.07
54870;BME280;40756;-37.950;145.008;2023-02-03T11:48:27;99825.59;;;14.53;46.87
54870;BME280;40756;-37.950;145.008;2023-02-03T11:51:03;99835.59;;;14.34;47.99
54870;BME280;40756;-37.950;145.008;2023-02-03T11:53:42;99833.06;;;15.01;46.94
54870;BME280;40756;-37.950;145.008;2023-02-03T11:56:25;99831.22;;;14.62;48.11
54870;BME280;40756;-37.950;145.008;2023-02-03T11:59:21;99828.61;;;14.87;47.00
54870;BME280;40756;-37.950;145.008;2023-02-03T12:03:23;99834.76;;;14.10;47.70
54870;BME280;40756;-37.950;145.008;2023-02-03T12:06:11;99830.08;;;14.75;46.45
54870;BME280;40756;-37.950;145.008;2023-02-03T12:08:58;99832.30;;;15.25;46.42
54870;BME280;40756;-37.950;145.008;2023-02-03T12:11:41;99838.63;;;15.02;46.57
54870;BME280;40756;-37.950;145.008;2023-02-03T12:14:28;99836.66;;;15.16;46.14
54870;BME280;40756;-37.950;145.008;2023-02-03T12:17:21;99838.41;;;14.66;46.89
54870;BME280;40756;-37.950;145.008;2023-02-03T12:20:11;99843.22;;;14.93;46.55
54870;BME280;40756;-37.950;145.008;2023-02-03T12:22:55;99842.80;;;15.46;45.92
54870;BME280;40756;-37.950;145.008;2023-02-03T12:25:35;99850.88;;;14.92;46.61
54870;BME280;40756;-37.950;145.008;2023-02-03T12:28:20;99856.07;;;14.99;46.38
54870;BME280;40756;-37.950;145.008;2023-02-03T12:30:56;99852.72;;;14.78;46.22
54870;BME280;40756;-37.950;145.008;2023-02-03T12:33:32;99850.27;;;14.89;45.95
54870;BME280;40756;-37.950;145.008;2023-02-03T12:36:10;99845.38;;;14.74;45.58
54870;BME280;40756;-37.950;145.008;2023-02-03T12:38:49;99853.25;;;14.52;46.64
54870;BME280;40756;-37.950;145.008;2023-02-03T12:41:24;99860.11;;;14.69;46.09
54870;BME280;40756;-37.950;145.008;2023-02-03T12:43:59;99857.25;;;14.73;45.82
54870;BME280;40756;-37.950;145.008;2023-02-03T12:46:34;99865.12;;;14.44;47.27
54870;BME280;40756;-37.950;145.008;2023-02-03T12:49:12;99864.33;;;14.72;47.18
54870;BME280;40756;-37.950;145.008;2023-02-03T12:51:49;99867.37;;;14.31;47.51
54870;BME280;40756;-37.950;145.008;2023-02-03T12:54:32;99869.19;;;15.26;46.77
54870;BME280;40756;-37.950;145.008;2023-02-03T12:57:13;99876.96;;;14.43;47.37
54870;BME280;40756;-37.950;145.008;2023-02-03T12:59:55;99875.71;;;14.98;46.44
54870;BME280;40756;-37.950;145.008;2023-02-03T13:02:28;99878.03;;;14.68;46.93